Time;durP1;ratioP1;P1;durP2;ratioP2;P2;SDS_P1;SDS_P2;PMS_P1;PMS_P2;Temp;Humidity;BMP_temperature;BMP_pressure;BME280_temperature;BME280_humidity;BME280_pressure;Samples;Min_cycle;Max_cycle;Signal;HPM_P1;HPM_P2
2023/10/31 00:01:27;;;;;;;1.30;1.17;;;;;;;17.96;52.03;98947.00;4394474;32;32482;-93
2023/10/31 00:04:18;;;;;;;1.73;1.62;;;;;;;17.96;52.17;98940.81;4415290;32;32884;-94
2023/10/31 00:06:58;;;;;;;1.70;1.60;;;;;;;18.18;51.69;98929.91;4373473;32;32890;-94
2023/10/31 00:09:49;;;;;;;1.12;1.05;;;;;;;17.78;52.96;98941.44;4371829;32;32655;-94
2023/10/31 00:12:28;;;;;;;1.60;1.17;;;;;;;18.14;51.91;98937.38;4403657;32;32648;-89
2023/10/31 00:14:58;;;;;;;1.45;1.35;;;;;;;18.24;51.80;98933.87;4405743;32;32641;-90
2023/10/31 00:17:26;;;;;;;1.40;0.88;;;;;;;18.10;51.79;98935.94;4393225;32;33094;-90
2023/10/31 00:19:54;;;;;;;1.92;0.88;;;;;;;17.96;52.20;98949.66;4406389;32;33040;-89
2023/10/31 00:22:24;;;;;;;1.60;1.50;;;;;;;17.93;52.09;98933.91;4403633;32;34475;-90
2023/10/31 00:24:52;;;;;;;4.62;1.33;;;;;;;17.99;52.01;98928.00;4393002;32;33002;-89
2023/10/31 00:27:20;;;;;;;17.83;2.00;;;;;;;17.99;52.08;98921.81;4403825;32;33826;-94
2023/10/31 00:30:22;;;;;;;1.83;0.65;;;;;;;17.64;52.93;98931.06;4391734;32;32560;-94
2023/10/31 00:33:01;;;;;;;6.37;1.48;;;;;;;17.93;52.03;98912.53;4382168;32;32055;-92
2023/10/31 00:35:53;;;;;;;0.82;0.75;;;;;;;18.08;50.98;98910.34;4404023;32;32926;-94
2023/10/31 00:38:32;;;;;;;1.37;1.27;;;;;;;17.92;51.09;98895.66;4395345;32;32762;-96
2023/10/31 00:41:26;;;;;;;1.37;1.25;;;;;;;17.77;51.51;98904.19;4397340;32;35176;-94
2023/10/31 00:44:05;;;;;;;0.93;0.88;;;;;;;18.12;50.55;98891.22;4371715;32;32015;-95
2023/10/31 00:46:48;;;;;;;3.28;1.83;;;;;;;18.15;50.46;98885.63;4400691;32;33975;-95
2023/10/31 00:49:42;;;;;;;0.73;0.57;;;;;;;17.96;51.07;98888.25;4431597;32;34798;-96
2023/10/31 00:52:29;;;;;;;1.05;1.00;;;;;;;18.24;50.25;98872.41;4408217;32;32554;-91
2023/10/31 00:55:42;;;;;;;1.37;0.63;;;;;;;17.68;52.30;98879.09;4397952;32;32963;-91
2023/10/31 00:58:49;;;;;;;1.02;0.73;;;;;;;17.69;52.08;98871.94;4363304;32;32579;-94
2023/10/31 01:01:47;;;;;;;1.67;1.08;;;;;;;17.79;51.35;98872.84;4329661;33;34465;-93
2023/10/31 01:04:26;;;;;;;2.10;1.62;;;;;;;17.83;51.19;98860.91;4363845;32;33190;-93
2023/10/31 01:07:20;;;;;;;2.55;2.33;;;;;;;17.59;51.91;98864.75;4351666;32;32972;-95
2023/10/31 01:09:59;;;;;;;0.70;0.70;;;;;;;17.55;51.67;98865.97;4325127;33;33890;-94
2023/10/31 01:12:51;;;;;;;1.90;0.70;;;;;;;17.64;51.76;98867.84;4366162;32;32648;-96
2023/10/31 01:15:30;;;;;;;7.15;1.48;;;;;;;17.90;50.16;98848.72;4364891;32;34113;-95
2023/10/31 01:18:22;;;;;;;0.57;0.57;;;;;;;18.10;49.90;98834.41;4370262;32;33211;-96
2023/10/31 01:21:01;;;;;;;11.90;2.75;;;;;;;17.69;51.49;98840.75;4366377;32;32669;-95
2023/10/31 01:23:54;;;;;;;7.28;1.30;;;;;;;17.87;51.31;98833.81;4365433;32;32811;-94
2023/10/31 01:26:33;;;;;;;1.80;1.37;;;;;;;17.64;52.44;98832.31;4387263;32;35097;-95
2023/10/31 01:29:25;;;;;;;0.70;0.70;;;;;;;17.81;52.14;98822.84;4361035;32;31648;-92
2023/10/31 01:32:04;;;;;;;1.58;1.48;;;;;;;17.53;53.35;98827.91;4389594;32;32731;-91
2023/10/31 01:35:10;;;;;;;0.95;0.95;;;;;;;17.71;53.19;98816.56;4347174;32;34207;-92
2023/10/31 01:38:12;;;;;;;1.85;1.75;;;;;;;16.96;55.77;98821.31;4380539;32;34307;-94
2023/10/31 01:41:04;;;;;;;0.90;0.70;;;;;;;16.70;56.33;98827.97;4375018;32;32724;-95
2023/10/31 01:43:43;;;;;;;2.62;2.05;;;;;;;16.80;55.88;98815.59;4350004;32;32394;-92
2023/10/31 01:46:35;;;;;;;6.73;1.47;;;;;;;17.27;54.50;98814.16;4360848;32;32771;-92
2023/10/31 01:49:14;;;;;;;6.03;1.62;;;;;;;16.99;54.81;98815.69;4368933;32;32526;-93
2023/10/31 01:52:06;;;;;;;2.53;1.67;;;;;;;17.40;53.61;98812.13;4389549;32;32171;-93
2023/10/31 01:55:09;;;;;;;2.37;1.85;;;;;;;17.31;53.66;98809.41;4383309;32;32792;-92
2023/10/31 01:58:02;;;;;;;2.80;1.92;;;;;;;17.28;54.08;98801.66;4406230;32;33645;-95
2023/10/31 02:00:43;;;;;;;3.37;1.42;;;;;;;17.09;54.64;98805.97;4431729;32;32901;-90
2023/10/31 02:03:22;;;;;;;1.40;1.30;;;;;;;17.24;54.27;98808.28;4436386;32;32676;-92
2023/10/31 02:06:10;;;;;;;1.92;1.48;;;;;;;17.22;54.08;98800.38;4428979;32;32672;-92
2023/10/31 02:09:05;;;;;;;4.97;1.90;;;;;;;16.99;54.12;98789.03;4435378;32;33592;-95
2023/10/31 02:11:44;;;;;;;1.15;1.05;;;;;;;17.25;53.84;98788.63;4412252;32;33104;-95
2023/10/31 02:14:35;;;;;;;1.58;1.33;;;;;;;17.13;54.13;98791.34;4409436;32;31872;-95
2023/10/31 02:17:14;;;;;;;1.83;1.73;;;;;;;17.36;53.60;98780.50;4423374;32;32775;-90
2023/10/31 02:20:06;;;;;;;1.55;1.45;;;;;;;17.31;53.64;98772.91;4418136;32;32884;-94
2023/10/31 02:22:57;;;;;;;1.20;1.17;;;;;;;17.22;53.84;98773.72;4425746;32;34128;-95
2023/10/31 02:25:48;;;;;;;3.65;1.17;;;;;;;17.14;54.15;98771.72;4385300;32;32338;-94
2023/10/31 02:28:27;;;;;;;2.60;1.98;;;;;;;17.19;53.85;98781.16;4410276;32;33467;-89
2023/10/31 02:30:58;;;;;;;0.77;0.77;;;;;;;17.17;53.96;98775.94;4408563;32;33054;-89
2023/10/31 02:33:27;;;;;;;0.98;0.77;;;;;;;17.08;54.31;98787.41;4408142;32;32777;-90
2023/10/31 02:35:54;;;;;;;2.50;1.73;;;;;;;16.99;54.71;98783.69;4409913;32;32060;-93
2023/10/31 02:42:55;;;;;;;8.80;1.35;;;;;;;16.99;54.70;98766.84;4412924;32;33031;-96
2023/10/31 02:45:48;;;;;;;1.60;1.50;;;;;;;16.81;54.92;98774.66;4373959;32;32639;-96
2023/10/31 02:48:27;;;;;;;1.35;1.35;;;;;;;16.70;55.69;98780.00;4422527;32;32207;-94
2023/10/31 02:51:19;;;;;;;2.55;1.73;;;;;;;16.97;54.73;98779.50;4401529;32;32473;-93
2023/10/31 02:53:58;;;;;;;1.83;1.62;;;;;;;16.85;54.99;98776.03;4398268;32;32863;-92
2023/10/31 02:56:41;;;;;;;3.53;2.20;;;;;;;16.99;54.85;98774.84;4406028;32;32970;-91
2023/10/31 02:59:32;;;;;;;2.53;2.28;;;;;;;16.61;55.92;98779.78;4356115;32;33357;-92
2023/10/31 03:02:11;;;;;;;3.25;1.85;;;;;;;17.17;54.51;98777.75;4417182;32;32492;-91
2023/10/31 03:05:02;;;;;;;5.57;2.40;;;;;;;17.12;54.62;98773.66;4406401;32;33187;-91
2023/10/31 03:07:41;;;;;;;2.20;2.10;;;;;;;17.03;54.68;98771.78;4388480;32;33406;-96
2023/10/31 03:10:32;;;;;;;0.68;0.68;;;;;;;16.98;54.94;98774.00;4397385;32;32326;-94
2023/10/31 03:13:11;;;;;;;8.48;1.95;;;;;;;16.94;55.10;98764.59;4393480;32;33308;-94
2023/10/31 03:16:03;;;;;;;2.03;1.83;;;;;;;16.86;55.59;98770.59;4380579;32;32839;-93
2023/10/31 03:18:43;;;;;;;1.20;1.10;;;;;;;16.92;55.50;98777.22;4423670;32;32287;-92
2023/10/31 03:21:34;;;;;;;2.28;2.08;;;;;;;16.85;55.37;98763.59;4396650;32;32731;-92
2023/10/31 03:24:13;;;;;;;2.03;1.80;;;;;;;17.49;53.42;98775.78;4397198;32;32787;-94
2023/10/31 03:27:07;;;;;;;1.90;1.37;;;;;;;17.00;54.98;98782.75;4433867;32;35383;-92
2023/10/31 03:29:46;;;;;;;1.50;0.80;;;;;;;17.41;53.74;98795.13;4444982;32;33514;-94
2023/10/31 03:32:44;;;;;;;0.70;0.70;;;;;;;17.46;53.67;98808.06;4411110;32;33018;-94
2023/10/31 03:35:23;;;;;;;1.37;1.27;;;;;;;16.91;55.73;98822.69;4435344;32;32739;-94
2023/10/31 03:38:16;;;;;;;4.47;1.60;;;;;;;17.06;55.05;98795.53;4422408;32;34005;-94
2023/10/31 03:40:55;;;;;;;2.28;1.17;;;;;;;17.01;55.62;98805.75;4426363;32;32748;-89
2023/10/31 03:43:25;;;;;;;1.05;1.05;;;;;;;16.75;57.23;98815.12;4406267;32;32956;-88
2023/10/31 03:45:53;;;;;;;0.73;0.73;;;;;;;16.87;55.79;98822.09;4406879;32;33013;-89
2023/10/31 03:48:21;;;;;;;0.52;0.50;;;;;;;17.08;55.94;98809.56;4411166;32;33814;-90
2023/10/31 03:51:09;;;;;;;3.12;2.20;;;;;;;16.92;56.74;98797.72;4420323;32;33002;-91
2023/10/31 03:53:57;;;;;;;0.80;0.75;;;;;;;16.94;56.77;98807.25;4410004;32;32543;-89
2023/10/31 03:57:04;;;;;;;0.85;0.85;;;;;;;17.21;55.58;98804.03;4435273;32;36659;-89
2023/10/31 03:59:32;;;;;;;1.98;1.75;;;;;;;16.98;56.15;98808.69;4421848;32;33335;-91
2023/10/31 04:02:40;;;;;;;1.52;1.42;;;;;;;17.01;56.66;98804.94;4436109;32;33212;-92
2023/10/31 04:05:49;;;;;;;0.52;0.52;;;;;;;16.72;58.08;98799.41;4396237;32;32158;-92
2023/10/31 04:08:28;;;;;;;1.70;1.60;;;;;;;16.35;59.49;98821.13;4402168;32;32553;-91
2023/10/31 04:10:56;;;;;;;1.27;1.23;;;;;;;16.47;59.24;98804.09;4396827;32;33818;-95
2023/10/31 04:13:26;;;;;;;3.92;1.35;;;;;;;16.56;59.82;98805.13;4405142;32;31907;-93
2023/10/31 04:16:14;;;;;;;1.37;1.10;;;;;;;16.70;59.08;98798.66;4412801;32;32484;-93
2023/10/31 04:19:03;;;;;;;2.42;1.90;;;;;;;16.58;59.48;98805.88;4401743;32;33101;-93
2023/10/31 04:21:51;;;;;;;2.50;2.30;;;;;;;16.52;59.18;98801.91;4435987;32;32858;-93
2023/10/31 04:24:41;;;;;;;4.20;1.55;;;;;;;16.87;58.33;98774.09;4435127;32;33238;-92
2023/10/31 04:27:52;;;;;;;1.30;0.98;;;;;;;16.51;59.82;98778.88;4442610;32;32178;-93
2023/10/31 04:30:21;;;;;;;1.08;1.08;;;;;;;16.72;59.05;98776.28;4436826;32;33789;-93
2023/10/31 04:33:30;;;;;;;1.25;1.15;;;;;;;16.15;60.57;98776.66;4438059;32;32865;-92
2023/10/31 04:36:10;;;;;;;2.50;0.95;;;;;;;16.82;58.14;98768.31;4383081;32;32692;-92
2023/10/31 04:39:19;;;;;;;2.40;1.37;;;;;;;16.61;59.16;98771.78;4408870;32;32756;-92
2023/10/31 04:42:13;;;;;;;0.35;0.35;;;;;;;16.67;58.77;98766.94;4411963;32;32903;-92
2023/10/31 04:45:28;;;;;;;0.82;0.82;;;;;;;16.37;59.28;98765.87;4395677;32;33668;-91
2023/10/31 04:48:25;;;;;;;0.55;0.55;;;;;;;16.26;59.87;98769.44;4390686;32;32979;-88
2023/10/31 04:50:53;;;;;;;0.73;0.57;;;;;;;16.33;59.74;98761.78;4382911;32;35292;-89
2023/10/31 04:53:21;;;;;;;0.62;0.62;;;;;;;16.59;58.43;98747.09;4385220;32;32653;-88
2023/10/31 04:55:50;;;;;;;0.30;0.30;;;;;;;16.67;58.09;98746.47;4380230;32;33057;-93
2023/10/31 04:58:32;;;;;;;1.05;0.68;;;;;;;16.51;57.72;98741.56;4395367;32;32757;-91
2023/10/31 05:01:27;;;;;;;1.05;0.70;;;;;;;16.27;59.40;98738.31;4382734;32;32261;-94
2023/10/31 05:04:06;;;;;;;0.60;0.60;;;;;;;16.64;58.01;98726.22;4397975;32;33331;-92
2023/10/31 05:07:22;;;;;;;0.77;0.75;;;;;;;16.58;58.49;98732.09;4363124;32;33846;-91
2023/10/31 05:10:33;;;;;;;2.75;1.45;;;;;;;16.76;57.68;98716.38;4342413;32;32959;-93
2023/10/31 05:13:38;;;;;;;2.60;1.87;;;;;;;16.91;56.65;98700.88;4330243;33;32197;-89
2023/10/31 05:16:08;;;;;;;3.12;1.55;;;;;;;16.68;56.63;98700.16;4325306;32;33650;-89
2023/10/31 05:18:36;;;;;;;0.70;0.70;;;;;;;16.59;57.05;98701.81;4316384;32;32996;-90
2023/10/31 05:21:05;;;;;;;1.98;1.65;;;;;;;16.76;56.38;98704.84;4332123;32;32770;-89
2023/10/31 05:23:33;;;;;;;1.02;0.88;;;;;;;16.73;56.00;98713.13;4330496;32;32376;-89
2023/10/31 05:26:01;;;;;;;5.40;0.85;;;;;;;16.90;55.34;98739.16;4354574;32;32090;-89
2023/10/31 05:28:31;;;;;;;0.73;0.73;;;;;;;16.85;55.70;98738.72;4363528;32;32989;-89
2023/10/31 05:31:00;;;;;;;20.92;1.30;;;;;;;16.68;56.47;98752.63;4359821;32;32428;-88
2023/10/31 05:33:27;;;;;;;0.88;0.82;;;;;;;16.91;56.02;98758.69;4358138;32;33761;-88
2023/10/31 05:35:56;;;;;;;5.68;2.05;;;;;;;17.27;54.46;98746.62;4374701;32;32720;-88
2023/10/31 05:38:24;;;;;;;0.57;0.50;;;;;;;16.99;55.09;98746.38;4400987;32;32941;-90
2023/10/31 05:41:25;;;;;;;1.02;0.65;;;;;;;16.88;55.46;98755.31;4409438;32;32931;-93
2023/10/31 05:44:17;;;;;;;0.50;0.50;;;;;;;16.94;56.72;98743.25;4376726;32;33509;-89
2023/10/31 05:46:56;;;;;;;1.17;1.00;;;;;;;16.71;57.18;98737.22;4374361;32;32743;-90
2023/10/31 05:49:49;;;;;;;0.55;0.50;;;;;;;16.77;56.34;98742.06;4391808;32;33596;-92
2023/10/31 05:52:50;;;;;;;0.50;0.50;;;;;;;16.81;55.70;98726.66;4393602;32;33867;-91
2023/10/31 05:55:29;;;;;;;0.80;0.52;;;;;;;16.81;55.70;98727.50;4407955;32;33147;-91
2023/10/31 05:58:20;;;;;;;0.65;0.55;;;;;;;17.28;54.02;98727.84;4385150;32;31485;-90
2023/10/31 06:00:59;;;;;;;1.35;0.85;;;;;;;16.83;54.79;98730.03;4401525;32;32860;-92
2023/10/31 06:03:57;;;;;;;1.08;0.43;;;;;;;17.10;53.81;98716.97;4411963;32;33763;-90
2023/10/31 06:06:39;;;;;;;0.28;0.28;;;;;;;16.77;55.48;98715.41;4425271;32;32240;-92
2023/10/31 06:09:42;;;;;;;1.60;1.08;;;;;;;17.00;54.60;98715.25;4411272;32;33019;-91
2023/10/31 06:12:22;;;;;;;0.55;0.55;;;;;;;16.65;55.68;98711.94;4413146;32;32715;-91
2023/10/31 06:15:39;;;;;;;1.92;1.12;;;;;;;16.75;55.79;98714.69;4378559;32;33644;-90
2023/10/31 06:18:21;;;;;;;0.57;0.57;;;;;;;17.03;55.12;98722.94;4384426;32;32432;-91
2023/10/31 06:21:28;;;;;;;2.37;1.87;;;;;;;16.99;54.91;98726.84;4399444;32;34132;-93
2023/10/31 06:24:13;;;;;;;0.52;0.30;;;;;;;17.21;53.90;98733.84;4341963;32;32838;-91
2023/10/31 06:27:04;;;;;;;0.47;0.47;;;;;;;17.32;53.90;98726.56;4346346;32;32680;-91
2023/10/31 06:29:52;;;;;;;0.10;0.10;;;;;;;17.33;53.60;98740.78;4345579;33;31917;-90
2023/10/31 06:32:53;;;;;;;0.10;0.10;;;;;;;17.28;53.84;98737.63;4349195;32;32931;-91
2023/10/31 06:35:47;;;;;;;2.85;0.82;;;;;;;17.34;54.26;98718.44;4337890;32;20738;-91
2023/10/31 06:38:26;;;;;;;2.37;1.92;;;;;;;17.32;55.02;98717.72;4355205;32;32493;-91
2023/10/31 06:41:20;;;;;;;0.65;0.52;;;;;;;17.34;54.93;98707.75;4347697;32;32479;-92
2023/10/31 06:43:59;;;;;;;0.62;0.62;;;;;;;17.14;56.77;98713.03;4349325;32;33822;-89
2023/10/31 06:46:27;;;;;;;4.72;1.95;;;;;;;17.22;55.83;98714.19;4359915;32;33905;-89
2023/10/31 06:48:55;;;;;;;0.55;0.35;;;;;;;17.10;56.15;98742.78;4349895;32;33720;-89
2023/10/31 06:51:24;;;;;;;1.95;1.05;;;;;;;17.30;54.99;98743.69;4362899;32;32264;-89
2023/10/31 06:53:53;;;;;;;0.30;0.30;;;;;;;17.22;55.13;98749.69;4365467;32;32963;-88
2023/10/31 06:56:22;;;;;;;0.95;0.60;;;;;;;17.43;54.33;98754.97;4365095;32;33017;-88
2023/10/31 06:58:50;;;;;;;1.00;0.93;;;;;;;17.70;53.20;98766.84;4377466;32;33564;-88
2023/10/31 07:01:19;;;;;;;4.78;0.57;;;;;;;17.41;54.34;98740.91;4370816;32;33691;-89
2023/10/31 07:03:47;;;;;;;1.85;1.65;;;;;;;17.49;55.50;98751.75;4377219;32;32904;-89
2023/10/31 07:06:15;;;;;;;1.02;0.80;;;;;;;17.76;54.14;98739.62;4362155;32;33132;-86
2023/10/31 07:08:43;;;;;;;1.08;0.37;;;;;;;17.23;57.12;98758.53;4376353;32;33103;-86
2023/10/31 07:11:11;;;;;;;0.85;0.85;;;;;;;17.18;57.98;98755.44;4369788;32;32570;-86
2023/10/31 07:13:41;;;;;;;1.17;0.55;;;;;;;17.29;57.33;98748.19;4380639;32;32571;-87
2023/10/31 07:16:09;;;;;;;2.30;1.48;;;;;;;17.38;57.30;98743.87;4368601;32;33142;-86
2023/10/31 07:18:41;;;;;;;0.45;0.45;;;;;;;17.46;56.48;98743.19;4363370;32;33141;-87
2023/10/31 07:21:10;;;;;;;0.32;0.32;;;;;;;17.76;54.73;98739.62;4386353;32;33475;-87
2023/10/31 07:23:37;;;;;;;1.12;0.45;;;;;;;17.74;55.37;98742.44;4398388;32;33140;-87
2023/10/31 07:26:05;;;;;;;0.75;0.45;;;;;;;17.97;53.28;98743.03;4386631;32;33173;-87
2023/10/31 07:28:33;;;;;;;1.77;0.22;;;;;;;17.72;54.14;98743.53;4395483;32;33983;-87
2023/10/31 07:31:01;;;;;;;0.60;0.60;;;;;;;17.50;57.64;98744.59;4372582;32;32992;-87
2023/10/31 07:33:28;;;;;;;0.98;0.98;;;;;;;17.60;57.25;98738.28;4382540;32;34182;-87
2023/10/31 07:35:57;;;;;;;0.52;0.52;;;;;;;17.76;56.37;98728.97;4367732;32;35243;-87
2023/10/31 07:38:24;;;;;;;0.60;0.60;;;;;;;17.80;56.16;98741.91;4379649;32;32802;-87
2023/10/31 07:40:52;;;;;;;0.50;0.50;;;;;;;17.78;56.42;98732.31;4370100;32;33281;-87
2023/10/31 07:43:21;;;;;;;0.35;0.28;;;;;;;17.50;55.95;98740.09;4371577;32;34009;-87
2023/10/31 07:45:49;;;;;;;0.80;0.60;;;;;;;17.80;54.65;98741.03;4388455;32;33400;-87
2023/10/31 07:48:17;;;;;;;3.20;0.55;;;;;;;17.75;54.09;98732.59;4372018;32;33469;-87
2023/10/31 07:50:45;;;;;;;1.10;0.75;;;;;;;17.80;52.90;98719.66;4372506;32;33641;-87
2023/10/31 07:53:12;;;;;;;3.20;0.35;;;;;;;17.97;52.20;98721.66;4382136;32;33077;-88
2023/10/31 07:55:40;;;;;;;0.37;0.30;;;;;;;18.04;51.98;98711.25;4385376;32;34373;-87
2023/10/31 07:58:09;;;;;;;0.20;0.15;;;;;;;18.23;51.50;98732.62;4396939;32;33856;-87
2023/10/31 08:00:40;;;;;;;0.32;0.32;;;;;;;18.46;50.99;98726.97;4387259;32;33329;-87
2023/10/31 08:03:08;;;;;;;0.30;0.30;;;;;;;18.60;50.68;98714.00;4396067;32;34592;-87
2023/10/31 08:05:36;;;;;;;0.30;0.30;;;;;;;18.68;49.80;98700.78;4379611;32;33742;-87
2023/10/31 08:08:04;;;;;;;0.35;0.35;;;;;;;18.49;50.29;98711.50;4382456;32;34237;-87
2023/10/31 08:10:34;;;;;;;0.00;0.00;;;;;;;18.54;50.09;98709.22;4370754;32;32826;-87
2023/10/31 08:13:05;;;;;;;0.10;0.10;;;;;;;18.59;50.22;98711.47;4373766;32;33934;-87
2023/10/31 08:15:33;;;;;;;4.28;0.60;;;;;;;18.77;49.75;98709.75;4361888;32;32951;-87
2023/10/31 08:18:01;;;;;;;0.95;0.82;;;;;;;18.72;50.17;98712.03;4385847;32;32162;-87
2023/10/31 08:20:33;;;;;;;0.75;0.65;;;;;;;18.66;49.64;98702.75;4400943;32;34186;-87
2023/10/31 08:23:01;;;;;;;0.52;0.52;;;;;;;18.62;50.48;98714.72;4385488;32;33450;-87
2023/10/31 08:25:29;;;;;;;2.47;1.27;;;;;;;18.67;50.70;98709.75;4382848;32;33723;-87
2023/10/31 08:27:57;;;;;;;3.10;1.15;;;;;;;18.80;50.23;98708.62;4399922;32;33798;-87
2023/10/31 08:30:25;;;;;;;0.55;0.55;;;;;;;18.85;50.69;98709.06;4371786;32;32164;-87
2023/10/31 08:32:53;;;;;;;3.67;0.52;;;;;;;18.67;50.15;98709.75;4398360;32;33815;-89
2023/10/31 08:35:22;;;;;;;0.50;0.37;;;;;;;18.78;50.13;98699.91;4373189;32;35192;-89
2023/10/31 08:37:50;;;;;;;0.35;0.20;;;;;;;18.81;50.47;98694.28;4384137;32;33026;-89
2023/10/31 08:40:18;;;;;;;0.10;0.10;;;;;;;18.86;50.05;98692.00;4388294;32;33025;-89
2023/10/31 08:42:45;;;;;;;2.78;0.22;;;;;;;18.85;49.36;98695.69;4385904;32;32865;-89
2023/10/31 08:45:13;;;;;;;0.57;0.57;;;;;;;18.89;48.61;98694.38;4397872;32;33954;-89
2023/10/31 08:47:41;;;;;;;0.00;0.00;;;;;;;18.87;48.74;98688.34;4385266;32;34197;-89
2023/10/31 08:50:10;;;;;;;0.43;0.43;;;;;;;19.18;48.29;98681.72;4372701;32;32474;-89
2023/10/31 08:52:39;;;;;;;0.77;0.47;;;;;;;19.05;48.44;98689.25;4374560;32;36007;-89
2023/10/31 08:55:07;;;;;;;0.47;0.47;;;;;;;19.02;49.12;98681.50;4385657;32;34597;-89
2023/10/31 08:57:35;;;;;;;0.13;0.13;;;;;;;19.21;49.11;98680.56;4359734;32;31980;-89
2023/10/31 09:00:04;;;;;;;1.35;0.62;;;;;;;19.23;47.84;98669.72;4369831;32;33969;-89
2023/10/31 09:02:33;;;;;;;1.02;0.93;;;;;;;19.17;47.36;98657.78;4373695;32;36487;-89
2023/10/31 09:05:01;;;;;;;0.28;0.28;;;;;;;19.53;47.68;98663.22;4372114;32;34833;-89
2023/10/31 09:07:30;;;;;;;0.70;0.45;;;;;;;19.55;46.77;98647.81;4374464;32;32971;-89
2023/10/31 09:09:57;;;;;;;0.73;0.40;;;;;;;19.78;46.80;98653.59;4373393;32;32742;-89
2023/10/31 09:12:25;;;;;;;0.52;0.50;;;;;;;19.66;47.10;98664.56;4376723;32;32825;-89
2023/10/31 09:14:53;;;;;;;0.20;0.20;;;;;;;19.56;46.81;98671.78;4375880;32;34010;-89
2023/10/31 09:17:21;;;;;;;1.27;0.75;;;;;;;19.88;46.53;98657.88;4385777;32;32903;-89
2023/10/31 09:19:49;;;;;;;0.40;0.40;;;;;;;20.10;46.50;98661.09;4371053;32;33265;-89
2023/10/31 09:22:17;;;;;;;0.28;0.28;;;;;;;19.99;46.02;98656.81;4376124;32;32655;-88
2023/10/31 09:24:44;;;;;;;0.20;0.20;;;;;;;19.93;45.69;98644.03;4369356;32;33475;-88
2023/10/31 09:27:13;;;;;;;2.20;0.32;;;;;;;19.95;46.59;98642.03;4373980;32;34328;-88
2023/10/31 09:29:41;;;;;;;0.28;0.28;;;;;;;20.04;45.93;98638.44;4399443;32;32521;-87
2023/10/31 09:32:09;;;;;;;0.80;0.77;;;;;;;19.99;45.70;98638.06;4384961;32;33776;-88
2023/10/31 09:34:36;;;;;;;1.95;0.50;;;;;;;20.00;45.74;98628.19;4398021;32;33046;-88
2023/10/31 09:37:04;;;;;;;2.05;0.90;;;;;;;20.04;45.67;98619.69;4385934;32;32864;-87
2023/10/31 09:39:32;;;;;;;1.33;0.93;;;;;;;20.16;45.63;98612.22;4364515;32;34113;-88
2023/10/31 09:41:59;;;;;;;4.95;0.70;;;;;;;20.33;45.03;98615.84;4378548;32;33308;-88
2023/10/31 09:44:28;;;;;;;0.35;0.30;;;;;;;20.36;45.65;98618.22;4398284;32;34580;-89
2023/10/31 09:46:59;;;;;;;0.13;0.10;;;;;;;20.26;44.17;98612.13;4372753;32;32770;-89
2023/10/31 09:49:28;;;;;;;0.50;0.22;;;;;;;20.29;44.87;98601.94;4389110;32;32623;-88
2023/10/31 09:51:57;;;;;;;0.45;0.45;;;;;;;20.47;44.98;98599.22;4379365;32;32043;-89
2023/10/31 09:54:25;;;;;;;0.80;0.45;;;;;;;20.65;44.52;98597.31;4382431;32;32955;-89
2023/10/31 09:56:54;;;;;;;0.32;0.32;;;;;;;20.56;43.61;98597.44;4377665;32;34279;-89
2023/10/31 09:59:22;;;;;;;0.10;0.10;;;;;;;20.52;43.78;98596.91;4372969;32;33105;-89
2023/10/31 10:02:11;;;;;;;0.00;0.00;;;;;;;20.42;43.83;98585.41;4359180;32;33437;-89
2023/10/31 10:04:39;;;;;;;0.25;0.25;;;;;;;20.42;43.86;98569.34;4359935;32;34244;-89
2023/10/31 10:07:07;;;;;;;0.15;0.15;;;;;;;20.85;42.74;98554.13;4349056;32;32870;-89
2023/10/31 10:09:35;;;;;;;1.00;0.50;;;;;;;20.83;43.65;98540.84;4350294;32;32516;-89
2023/10/31 10:12:05;;;;;;;1.50;1.15;;;;;;;20.78;43.84;98537.00;4359950;32;33594;-92
2023/10/31 10:14:32;;;;;;;0.10;0.10;;;;;;;20.85;42.94;98530.81;4347149;32;34185;-89
2023/10/31 10:17:00;;;;;;;0.00;0.00;;;;;;;20.89;42.80;98534.88;4345998;32;32952;-89
2023/10/31 10:19:29;;;;;;;0.65;0.52;;;;;;;21.14;42.73;98525.00;4353423;32;33419;-90
2023/10/31 10:21:58;;;;;;;0.20;0.20;;;;;;;21.20;42.49;98510.94;4344791;32;34726;-89
2023/10/31 10:24:25;;;;;;;6.28;0.73;;;;;;;20.67;43.33;98501.41;4359432;32;32951;-89
2023/10/31 10:26:53;;;;;;;0.28;0.20;;;;;;;21.10;42.44;98496.81;4348162;32;32710;-89
2023/10/31 10:29:21;;;;;;;0.60;0.40;;;;;;;20.94;42.10;98478.03;4371956;32;32474;-89
2023/10/31 10:31:49;;;;;;;0.95;0.60;;;;;;;20.97;41.76;98481.19;4357957;32;34889;-89
2023/10/31 10:34:17;;;;;;;0.13;0.13;;;;;;;20.72;42.68;98479.47;4361383;32;32865;-89
2023/10/31 10:36:51;;;;;;;0.30;0.30;;;;;;;21.28;41.69;98458.25;4395637;32;33841;-89
2023/10/31 10:39:21;;;;;;;0.57;0.57;;;;;;;21.19;41.58;98455.56;4360543;32;32517;-89
2023/10/31 10:41:58;;;;;;;0.40;0.40;;;;;;;20.90;42.10;98464.09;4385704;32;33460;-89
2023/10/31 10:44:34;;;;;;;1.25;0.90;;;;;;;20.95;41.99;98474.34;4365109;32;33513;-89
2023/10/31 10:47:04;;;;;;;0.28;0.28;;;;;;;20.82;41.60;98473.97;4381087;32;33104;-89
2023/10/31 10:49:37;;;;;;;0.30;0.30;;;;;;;21.11;41.78;98460.09;4372622;32;34059;-89
2023/10/31 10:52:24;;;;;;;4.72;1.17;;;;;;;21.13;41.33;98455.41;4370330;32;34256;-89
2023/10/31 10:55:04;;;;;;;0.43;0.37;;;;;;;20.93;41.33;98436.91;4370262;32;35228;-89
2023/10/31 10:58:08;;;;;;;0.52;0.52;;;;;;;20.75;41.49;98438.91;4371341;32;34249;-89
2023/10/31 11:00:54;;;;;;;0.00;0.00;;;;;;;20.90;40.73;98444.47;4375328;32;33469;-89
2023/10/31 11:03:31;;;;;;;0.68;0.20;;;;;;;20.94;40.67;98437.78;4392308;32;34219;-88
2023/10/31 11:06:01;;;;;;;0.65;0.52;;;;;;;21.25;41.27;98421.00;4376864;32;33161;-89
2023/10/31 11:08:29;;;;;;;0.10;0.10;;;;;;;21.21;40.72;98399.84;4386200;32;33270;-89
2023/10/31 11:10:57;;;;;;;0.00;0.00;;;;;;;21.14;40.71;98398.88;4383442;32;32617;-89
2023/10/31 11:13:25;;;;;;;8.88;1.17;;;;;;;21.35;41.06;98402.91;4373313;32;33091;-89
2023/10/31 11:15:56;;;;;;;0.05;0.05;;;;;;;21.44;40.30;98416.16;4386183;32;34043;-89
2023/10/31 11:18:23;;;;;;;0.82;0.35;;;;;;;21.16;40.17;98442.47;4379922;32;33933;-89
2023/10/31 11:20:52;;;;;;;0.57;0.55;;;;;;;21.47;39.45;98447.22;4370136;32;33640;-89
2023/10/31 11:23:20;;;;;;;0.47;0.47;;;;;;;21.77;40.11;98448.31;4373728;32;34585;-88
2023/10/31 11:25:50;;;;;;;0.10;0.10;;;;;;;21.78;40.57;98427.66;4379657;32;33200;-89
2023/10/31 11:28:19;;;;;;;0.65;0.47;;;;;;;21.61;41.01;98421.50;4375151;32;34206;-89
2023/10/31 11:30:50;;;;;;;0.20;0.15;;;;;;;21.75;41.93;98395.78;4385451;32;32251;-89
2023/10/31 11:33:20;;;;;;;0.40;0.40;;;;;;;21.68;43.02;98395.63;4372364;32;32143;-89
2023/10/31 11:35:51;;;;;;;1.80;0.45;;;;;;;21.90;42.97;98359.12;4388702;32;33078;-89
2023/10/31 11:38:32;;;;;;;4.90;1.07;;;;;;;21.78;43.22;98355.13;4396725;32;34915;-89
2023/10/31 11:41:02;;;;;;;0.20;0.20;;;;;;;21.79;43.90;98346.06;4384805;32;34216;-89
2023/10/31 11:43:51;;;;;;;0.35;0.10;;;;;;;21.57;48.95;98355.72;4361362;32;34235;-89
2023/10/31 11:46:20;;;;;;;0.45;0.32;;;;;;;21.99;42.74;98331.22;4385217;32;33191;-89
2023/10/31 11:48:51;;;;;;;0.20;0.20;;;;;;;21.60;44.78;98323.97;4400050;32;32779;-89
2023/10/31 11:51:22;;;;;;;0.62;0.55;;;;;;;21.45;46.35;98310.41;4395039;32;33434;-89
2023/10/31 11:53:50;;;;;;;1.20;0.50;;;;;;;21.27;47.63;98325.00;4384836;32;32863;-89
2023/10/31 11:56:19;;;;;;;3.62;0.73;;;;;;;21.24;49.57;98312.78;4399099;32;33807;-89
2023/10/31 11:58:56;;;;;;;0.70;0.30;;;;;;;21.21;48.17;98319.31;4379747;32;32624;-89
2023/10/31 12:01:44;;;;;;;0.40;0.40;;;;;;;21.15;48.18;98320.00;4386146;32;32561;-89
2023/10/31 12:04:22;;;;;;;0.45;0.45;;;;;;;21.14;48.32;98306.78;4387075;32;32852;-89
2023/10/31 12:07:00;;;;;;;0.75;0.60;;;;;;;21.28;47.89;98303.38;4384313;32;33761;-89
2023/10/31 12:09:31;;;;;;;0.67;0.60;;;;;;;21.44;47.74;98297.16;4377843;32;33471;-89
2023/10/31 12:12:00;;;;;;;0.00;0.00;;;;;;;21.03;49.06;98334.81;4383517;32;33001;-88
2023/10/31 12:14:28;;;;;;;0.10;0.10;;;;;;;21.15;48.83;98341.47;4380318;32;32858;-86
2023/10/31 12:16:56;;;;;;;2.35;1.75;;;;;;;20.62;55.07;98345.53;4375134;32;34394;-86
2023/10/31 12:19:23;;;;;;;1.42;0.85;;;;;;;20.16;57.58;98454.94;4375711;32;32820;-87
2023/10/31 12:21:51;;;;;;;0.37;0.17;;;;;;;19.89;56.68;98540.84;4396159;32;33614;-87
2023/10/31 12:24:20;;;;;;;1.15;0.22;;;;;;;19.30;58.14;98588.69;4389951;32;32828;-86
2023/10/31 12:26:47;;;;;;;0.57;0.47;;;;;;;19.18;58.42;98644.28;4371553;32;32961;-86
2023/10/31 12:29:19;;;;;;;0.20;0.20;;;;;;;18.39;59.91;98667.91;4359219;32;33279;-85